createdAt,value
2018-08-12T00:02:23.776Z,95760.34
2018-08-12T00:04:56.869Z,95762.23
2018-08-12T00:07:26.295Z,95767.73
2018-08-12T00:09:54.975Z,95775.55
2018-08-12T00:12:23.735Z,95767.39
2018-08-12T00:14:52.427Z,95768.19
2018-08-12T00:17:21.115Z,95767.20
2018-08-12T00:19:50.010Z,95779.98
2018-08-12T00:22:18.681Z,95773.59
2018-08-12T00:24:47.298Z,95769.80
2018-08-12T00:27:15.979Z,95773.45
2018-08-12T00:29:44.618Z,95770.81
2018-08-12T00:32:13.227Z,95773.27
2018-08-12T00:34:41.886Z,95771.69
2018-08-12T00:37:10.554Z,95767.06
2018-08-12T00:39:39.163Z,95761.63
2018-08-12T00:42:07.819Z,95761.61
2018-08-12T00:44:36.439Z,95760.50
2018-08-12T00:47:05.143Z,95768.84
2018-08-12T00:49:33.742Z,95769.22
2018-08-12T00:52:02.459Z,95772.14
2018-08-12T00:54:31.098Z,95766.50
2018-08-12T00:56:59.802Z,95764.12
2018-08-12T00:59:28.498Z,95767.39
2018-08-12T01:01:57.186Z,95761.18
2018-08-12T01:04:25.844Z,95758.98
2018-08-12T01:06:54.589Z,95769.36
2018-08-12T01:09:23.338Z,95768.52
2018-08-12T01:11:52.030Z,95763.00
2018-08-12T01:14:20.718Z,95768.63
2018-08-12T01:16:49.349Z,95765.33
2018-08-12T01:19:17.992Z,95762.41
2018-08-12T01:21:46.620Z,95757.45
2018-08-12T01:24:15.251Z,95756.09
2018-08-12T01:26:43.915Z,95756.83
2018-08-12T01:29:12.610Z,95765.56
2018-08-12T01:31:41.207Z,95772.58
2018-08-12T01:34:09.825Z,95766.64
2018-08-12T01:36:38.459Z,95764.34
2018-08-12T01:39:08.755Z,95762.89
2018-08-12T01:41:37.397Z,95755.59
2018-08-12T01:44:06.175Z,95759.09
2018-08-12T01:46:34.839Z,95755.73
2018-08-12T01:49:03.579Z,95759.88
2018-08-12T01:51:32.265Z,95761.94
2018-08-12T01:54:00.908Z,95756.61
2018-08-12T01:56:29.606Z,95763.22
2018-08-12T01:58:58.247Z,95766.27
2018-08-12T02:01:26.901Z,95765.82
2018-08-12T02:03:55.514Z,95761.73
2018-08-12T02:06:24.198Z,95754.77
2018-08-12T02:08:52.883Z,95584.65
2018-08-12T02:11:21.521Z,95757.91
2018-08-12T02:13:50.151Z,95768.10
2018-08-12T02:16:18.774Z,95768.92
2018-08-12T02:18:47.415Z,95768.17
2018-08-12T02:21:15.995Z,95767.84
2018-08-12T02:23:44.579Z,95772.22
2018-08-12T02:26:13.229Z,95774.79
2018-08-12T02:28:41.871Z,95771.30
2018-08-12T02:31:10.504Z,95770.50
2018-08-12T02:33:39.189Z,95768.84
2018-08-12T02:36:07.831Z,95774.22
2018-08-12T02:38:36.504Z,95775.75
2018-08-12T02:41:05.196Z,95774.41
2018-08-12T02:43:33.887Z,95778.48
2018-08-12T02:46:02.649Z,95774.12
2018-08-12T02:48:31.403Z,95776.55
2018-08-12T02:51:00.076Z,95780.69
2018-08-12T02:53:28.747Z,95779.19
2018-08-12T02:55:57.412Z,95781.35
2018-08-12T02:58:26.034Z,95793.58
2018-08-12T03:00:54.638Z,95799.20
2018-08-12T03:03:23.290Z,95802.06
2018-08-12T03:05:51.920Z,95804.19
2018-08-12T03:08:20.606Z,95802.34
2018-08-12T03:10:49.257Z,95805.55
2018-08-12T03:13:17.830Z,95798.68
2018-08-12T03:15:46.463Z,95797.97
2018-08-12T03:18:15.094Z,95801.75
2018-08-12T03:20:43.730Z,95794.24
2018-08-12T03:23:12.395Z,95789.06
2018-08-12T03:25:41.064Z,95794.15
2018-08-12T03:28:09.678Z,95800.05
2018-08-12T03:30:38.299Z,95791.76
2018-08-12T03:33:07.202Z,95793.97
2018-08-12T03:35:35.842Z,95797.67
2018-08-12T03:38:04.502Z,95802.70
2018-08-12T03:40:33.136Z,95811.52
2018-08-12T03:43:01.755Z,95815.46
2018-08-12T03:45:30.419Z,95808.47
2018-08-12T03:47:59.047Z,95811.02
2018-08-12T03:50:27.724Z,95812.61
2018-08-12T03:52:56.459Z,95817.48
2018-08-12T03:55:25.113Z,95821.53
2018-08-12T03:57:53.762Z,95826.02
2018-08-12T04:00:22.572Z,95830.38
2018-08-12T04:02:51.299Z,95829.52
2018-08-12T04:05:20.013Z,95831.45
2018-08-12T04:07:48.667Z,95828.80
2018-08-12T04:10:17.442Z,95826.08
2018-08-12T04:12:46.074Z,95829.15
2018-08-12T04:15:14.767Z,95834.48
2018-08-12T04:17:43.426Z,95846.08
2018-08-12T04:20:12.544Z,95847.91
2018-08-12T04:22:41.151Z,95853.05
2018-08-12T04:25:09.855Z,95840.69
2018-08-12T04:27:38.495Z,95846.99
2018-08-12T04:30:08.671Z,95838.30
2018-08-12T04:32:37.335Z,95829.90
2018-08-12T04:35:06.674Z,95838.92
2018-08-12T04:37:35.278Z,95836.11
2018-08-12T04:40:04.127Z,95843.22
2018-08-12T04:42:32.803Z,95848.58
2018-08-12T04:45:01.454Z,95843.46
2018-08-12T04:47:30.095Z,95847.45
2018-08-12T04:49:58.724Z,95846.67
2018-08-12T04:52:27.330Z,95855.02
2018-08-12T04:54:55.978Z,95851.30
2018-08-12T04:57:24.602Z,95844.59
2018-08-12T04:59:53.282Z,95852.14
2018-08-12T05:02:21.895Z,95858.58
2018-08-12T05:04:50.505Z,95864.17
2018-08-12T05:07:19.183Z,95857.54
2018-08-12T05:09:47.874Z,95859.44
2018-08-12T05:12:16.554Z,95854.22
2018-08-12T05:14:45.154Z,95848.68
2018-08-12T05:17:13.810Z,95858.95
2018-08-12T05:19:42.494Z,95864.41
2018-08-12T05:22:11.384Z,95854.50
2018-08-12T05:24:40.042Z,95855.09
2018-08-12T05:27:09.080Z,95861.27
2018-08-12T05:29:37.775Z,95857.09
2018-08-12T05:32:06.535Z,95867.19
2018-08-12T05:34:35.188Z,95856.88
2018-08-12T05:37:04.096Z,95854.83
2018-08-12T05:39:32.735Z,95862.72
2018-08-12T05:42:01.388Z,95853.88
2018-08-12T05:44:30.162Z,95854.87
2018-08-12T05:46:59.049Z,95851.83
2018-08-12T05:49:27.717Z,95851.02
2018-08-12T05:51:56.315Z,95854.56
2018-08-12T05:54:24.936Z,95856.74
2018-08-12T05:56:53.646Z,95859.30
2018-08-12T05:59:22.318Z,95854.12
2018-08-12T06:01:50.934Z,95854.05
2018-08-12T06:04:19.522Z,95855.86
2018-08-12T06:06:48.200Z,95851.65
2018-08-12T06:09:16.814Z,95859.54
2018-08-12T06:11:45.406Z,95859.65
2018-08-12T06:14:14.105Z,95854.20
2018-08-12T06:16:42.753Z,95859.92
2018-08-12T06:19:11.451Z,95859.92
2018-08-12T06:21:40.104Z,95857.16
2018-08-12T06:24:08.882Z,95859.42
2018-08-12T06:26:37.654Z,95859.09
2018-08-12T06:29:06.808Z,95857.30
2018-08-12T06:31:35.502Z,95852.75
2018-08-12T06:34:04.160Z,95853.11
2018-08-12T06:36:32.827Z,95847.84
2018-08-12T06:39:02.095Z,95847.87
2018-08-12T06:41:30.753Z,95851.66
2018-08-12T06:43:59.495Z,95852.52
2018-08-12T06:46:28.721Z,95848.70
2018-08-12T06:48:57.432Z,95853.27
2018-08-12T06:51:26.100Z,95845.86
2018-08-12T06:53:54.799Z,95845.37
2018-08-12T06:56:23.720Z,95848.92
2018-08-12T06:58:52.609Z,95851.93
2018-08-12T07:01:21.323Z,95855.16
2018-08-12T07:03:50.032Z,95842.66
2018-08-12T07:06:18.984Z,95855.54
2018-08-12T07:08:48.158Z,95846.16
2018-08-12T07:11:17.395Z,95843.43
2018-08-12T07:13:46.586Z,95838.05
2018-08-12T07:16:15.861Z,95848.95
2018-08-12T07:18:44.818Z,95820.63
2018-08-12T07:21:13.926Z,95842.42
2018-08-12T07:23:43.091Z,95845.66
2018-08-12T07:26:12.106Z,95841.26
2018-08-12T07:28:40.990Z,95844.20
2018-08-12T07:31:09.647Z,95837.20
2018-08-12T07:33:38.298Z,95844.14
2018-08-12T07:36:07.297Z,95834.04
2018-08-12T07:38:36.457Z,95834.27
2018-08-12T07:41:05.295Z,95837.57
2018-08-12T07:43:34.127Z,95835.36
2018-08-12T07:46:03.088Z,95838.95
2018-08-12T07:48:31.999Z,95833.16
2018-08-12T07:51:00.811Z,95834.09
2018-08-12T07:53:30.520Z,95831.56
2018-08-12T07:56:00.336Z,95829.44
2018-08-12T07:58:29.190Z,95828.66
2018-08-12T08:00:58.091Z,95831.09
2018-08-12T08:03:27.124Z,95829.16
2018-08-12T08:05:56.142Z,95828.65
2018-08-12T08:08:24.971Z,95827.07
2018-08-12T08:10:53.715Z,95819.55
2018-08-12T08:13:22.529Z,95818.62
2018-08-12T08:15:51.380Z,95822.41
2018-08-12T08:18:20.052Z,95825.70
2018-08-12T08:20:48.919Z,95831.62
2018-08-12T08:23:17.603Z,95831.72
2018-08-12T08:25:46.308Z,95826.05
2018-08-12T08:28:15.239Z,95824.31
2018-08-12T08:30:45.161Z,95827.95
2018-08-12T08:33:14.439Z,95824.47
2018-08-12T08:35:43.431Z,95826.66
2018-08-12T08:38:12.392Z,95821.05
2018-08-12T08:40:41.640Z,95826.39
2018-08-12T08:43:10.850Z,95823.46
2018-08-12T08:45:40.114Z,95818.27
2018-08-12T08:48:09.037Z,95830.93
2018-08-12T08:50:37.782Z,95819.99
2018-08-12T08:53:07.522Z,95823.42
2018-08-12T08:55:36.877Z,95820.16
2018-08-12T08:58:05.851Z,95820.03
2018-08-12T09:00:34.722Z,95821.78
2018-08-12T09:03:03.527Z,95819.43
2018-08-12T09:05:32.743Z,95811.83
2018-08-12T09:08:02.081Z,95817.63
2018-08-12T09:10:31.223Z,95803.41
2018-08-12T09:13:00.211Z,95807.38
2018-08-12T09:15:29.747Z,95808.81
2018-08-12T09:17:58.763Z,95795.85
2018-08-12T09:20:27.443Z,95801.20
2018-08-12T09:22:56.425Z,95800.70
2018-08-12T09:25:25.667Z,95801.14
2018-08-12T09:27:54.371Z,95800.04
2018-08-12T09:30:23.202Z,95798.80
2018-08-12T09:32:52.890Z,95802.09
2018-08-12T09:35:21.933Z,95798.98
2018-08-12T09:37:50.825Z,95786.69
2018-08-12T09:40:20.174Z,95795.98
2018-08-12T09:42:49.376Z,95790.34
2018-08-12T09:45:20.546Z,95791.68
2018-08-12T09:47:49.754Z,95805.20
2018-08-12T09:50:19.534Z,95802.28
2018-08-12T09:52:49.459Z,95787.92
2018-08-12T09:55:19.334Z,95787.16
2018-08-12T09:57:48.822Z,95791.23
2018-08-12T10:00:23.249Z,95784.79
2018-08-12T10:02:53.883Z,95780.63
2018-08-12T10:05:22.629Z,95784.09
2018-08-12T10:07:52.404Z,95778.69
2018-08-12T10:10:21.373Z,95781.36
2018-08-12T10:12:50.406Z,95783.43
2018-08-12T10:15:20.060Z,95782.85
2018-08-12T10:17:52.726Z,95779.50
2018-08-12T10:20:21.457Z,95773.87
2018-08-12T10:22:50.263Z,95780.62
2018-08-12T10:25:18.974Z,95774.39
2018-08-12T10:27:47.714Z,95769.14
2018-08-12T10:30:16.529Z,95767.03
2018-08-12T10:32:45.387Z,95767.55
2018-08-12T10:35:15.419Z,95768.23
2018-08-12T10:37:44.364Z,95771.95
2018-08-12T10:40:14.868Z,95778.06
2018-08-12T10:42:43.894Z,95776.94
2018-08-12T10:45:12.982Z,95769.06
2018-08-12T10:47:41.874Z,95765.52
2018-08-12T10:50:15.772Z,95770.84
2018-08-12T10:52:45.258Z,95763.06
2018-08-12T10:55:15.245Z,95753.73
2018-08-12T10:57:44.450Z,95758.28
2018-08-12T11:00:16.376Z,95754.55
2018-08-12T11:02:45.779Z,95762.34
2018-08-12T11:05:15.442Z,95752.23
2018-08-12T11:07:44.826Z,95757.45
2018-08-12T11:10:13.950Z,95753.24
2018-08-12T11:12:42.943Z,95750.02
2018-08-12T11:15:11.732Z,95752.88
2018-08-12T11:17:41.177Z,95750.22
2018-08-12T11:20:10.451Z,95738.80
2018-08-12T11:22:39.403Z,95741.73
2018-08-12T11:25:09.353Z,95742.09
2018-08-12T11:27:38.039Z,95740.31
2018-08-12T11:30:09.118Z,95735.80
2018-08-12T11:32:37.821Z,95739.02
2018-08-12T11:35:07.482Z,95740.22
2018-08-12T11:37:36.127Z,95738.23
2018-08-12T11:40:05.149Z,95731.25
2018-08-12T11:42:33.795Z,95729.42
2018-08-12T11:45:02.982Z,95724.63
2018-08-12T11:47:31.647Z,95719.98
2018-08-12T11:50:00.240Z,95718.82
2018-08-12T11:52:28.947Z,95725.07
2018-08-12T11:54:57.699Z,95722.30
2018-08-12T11:57:26.336Z,95727.61
2018-08-12T11:59:55.037Z,95717.97
2018-08-12T12:02:23.688Z,95716.07
2018-08-12T12:04:52.368Z,95710.59
2018-08-12T12:07:21.007Z,95707.84
2018-08-12T12:09:49.657Z,95708.41
2018-08-12T12:12:18.300Z,95714.42
2018-08-12T12:14:46.913Z,95705.53
2018-08-12T12:17:15.491Z,95708.17
2018-08-12T12:19:44.146Z,95706.17
2018-08-12T12:22:12.767Z,95703.39
2018-08-12T12:24:41.403Z,95710.27
2018-08-12T12:27:10.064Z,95705.39
2018-08-12T12:29:38.687Z,95701.60
2018-08-12T12:32:07.678Z,95690.35
2018-08-12T12:34:36.356Z,95684.88
2018-08-12T12:37:05.004Z,95690.69
2018-08-12T12:39:33.939Z,95688.95
2018-08-12T12:42:02.588Z,95687.48
2018-08-12T12:44:31.262Z,95676.61
2018-08-12T12:46:59.954Z,95669.03
2018-08-12T12:49:28.688Z,95667.64
2018-08-12T12:51:57.837Z,95677.72
2018-08-12T12:54:26.866Z,95667.55
2018-08-12T12:56:55.500Z,95672.86
2018-08-12T12:59:24.450Z,95674.80
2018-08-12T13:01:53.092Z,95667.19
2018-08-12T13:04:21.977Z,95657.47
2018-08-12T13:06:51.027Z,95665.48
2018-08-12T13:09:20.472Z,95660.14
2018-08-12T13:11:49.508Z,95654.69
2018-08-12T13:14:18.197Z,95653.81
2018-08-12T13:16:48.467Z,95661.55
2018-08-12T13:19:17.397Z,95653.16
2018-08-12T13:21:46.234Z,95646.27
2018-08-12T13:24:15.700Z,95635.45
2018-08-12T13:26:44.600Z,95641.30
2018-08-12T13:29:13.460Z,95628.78
2018-08-12T13:31:42.553Z,95640.80
2018-08-12T13:34:11.639Z,95642.70
2018-08-12T13:36:40.408Z,95629.89
2018-08-12T13:39:11.468Z,95629.83
2018-08-12T13:41:40.350Z,95629.02
2018-08-12T13:44:09.167Z,95625.39
2018-08-12T13:46:38.211Z,95626.06
2018-08-12T13:49:07.141Z,95624.79
2018-08-12T13:51:36.950Z,95622.90
2018-08-12T13:54:05.786Z,95624.86
2018-08-12T13:56:34.920Z,95617.27
2018-08-12T13:59:04.111Z,95619.97
2018-08-12T14:01:32.980Z,95617.82
2018-08-12T14:04:02.275Z,95628.52
2018-08-12T14:06:31.362Z,95630.48
2018-08-12T14:09:00.255Z,95613.23
2018-08-12T14:11:29.094Z,95621.39
2018-08-12T14:13:58.029Z,95616.01
2018-08-12T14:16:26.872Z,95616.83
2018-08-12T14:18:55.713Z,95613.09
2018-08-12T14:21:24.432Z,95615.08
2018-08-12T14:23:53.482Z,95614.58
2018-08-12T14:26:22.614Z,95607.52
2018-08-12T14:28:51.906Z,95614.96
2018-08-12T14:31:20.809Z,95609.89
2018-08-12T14:33:49.430Z,95610.60
2018-08-12T14:36:18.070Z,95598.11
2018-08-12T14:38:46.718Z,95600.81
2018-08-12T14:41:15.315Z,95604.45
2018-08-12T14:43:43.994Z,95609.95
2018-08-12T14:46:12.628Z,95607.81
2018-08-12T14:48:41.326Z,95603.41
2018-08-12T14:51:10.047Z,95610.64
2018-08-12T14:53:38.654Z,95613.77
2018-08-12T14:56:07.353Z,95601.06
2018-08-12T14:58:36.077Z,95595.52
2018-08-12T15:01:04.778Z,95596.19
2018-08-12T15:03:33.439Z,95594.30
2018-08-12T15:06:02.090Z,95595.09
2018-08-12T15:08:30.775Z,95607.16
2018-08-12T15:10:59.399Z,95593.13
2018-08-12T15:13:28.294Z,95595.72
2018-08-12T15:15:57.031Z,95598.44
2018-08-12T15:18:25.753Z,95593.20
2018-08-12T15:20:54.409Z,95586.19
2018-08-12T15:23:23.078Z,95588.59
2018-08-12T15:25:51.698Z,95585.72
2018-08-12T15:28:20.313Z,95581.66
2018-08-12T15:30:48.974Z,95587.83
2018-08-12T15:33:17.657Z,95595.66
2018-08-12T15:35:46.340Z,95589.33
2018-08-12T15:38:15.023Z,95588.45
2018-08-12T15:40:43.662Z,95583.62
2018-08-12T15:43:12.335Z,95581.89
2018-08-12T15:45:40.951Z,95579.95
2018-08-12T15:48:09.594Z,95574.48
2018-08-12T15:50:38.253Z,95581.34
2018-08-12T15:53:07.107Z,95577.03
2018-08-12T15:55:35.747Z,95584.09
2018-08-12T15:58:04.482Z,95567.48
2018-08-12T16:00:33.113Z,95570.50
2018-08-12T16:03:01.823Z,95575.72
2018-08-12T16:05:30.495Z,95571.76
2018-08-12T16:07:59.230Z,95573.95
2018-08-12T16:10:28.085Z,95573.02
2018-08-12T16:12:56.735Z,95566.34
2018-08-12T16:15:25.430Z,95566.94
2018-08-12T16:17:54.103Z,95567.23
2018-08-12T16:20:22.781Z,95562.94
2018-08-12T16:22:52.319Z,95565.89
2018-08-12T16:25:21.971Z,95562.84
2018-08-12T16:27:50.650Z,95568.62
2018-08-12T16:30:19.652Z,95562.49
2018-08-12T16:32:48.423Z,95569.95
2018-08-12T16:35:17.947Z,95566.59
2018-08-12T16:37:47.103Z,95563.73
2018-08-12T16:40:22.359Z,95571.18
2018-08-12T16:42:51.313Z,95570.45
2018-08-12T16:45:20.463Z,95579.39
2018-08-12T16:47:49.234Z,95570.48
2018-08-12T16:50:17.887Z,95572.52
2018-08-12T16:52:46.638Z,95571.23
2018-08-12T16:55:16.686Z,95573.52
2018-08-12T16:57:46.174Z,95574.68
2018-08-12T17:00:20.488Z,95581.73
2018-08-12T17:02:49.368Z,95584.02
2018-08-12T17:05:21.158Z,95586.44
2018-08-12T17:07:50.026Z,95582.30
2018-08-12T17:10:19.433Z,95582.00
2018-08-12T17:12:48.113Z,95589.98
2018-08-12T17:15:19.377Z,95597.52
2018-08-12T17:17:48.623Z,95591.48
2018-08-12T17:20:18.222Z,95586.50
2018-08-12T17:22:47.139Z,95599.29
2018-08-12T17:25:16.058Z,95602.05
2018-08-12T17:27:45.040Z,95595.50
2018-08-12T17:30:14.949Z,95602.03
2018-08-12T17:32:44.230Z,95599.70
2018-08-12T17:35:13.009Z,95592.54
2018-08-12T17:37:42.824Z,95594.48
2018-08-12T17:40:12.815Z,95594.72
2018-08-12T17:42:41.514Z,95592.35
2018-08-12T17:45:11.455Z,95593.86
2018-08-12T17:47:40.539Z,95595.98
2018-08-12T17:50:10.734Z,95594.46
2018-08-12T17:52:39.447Z,95592.33
2018-08-12T17:55:08.372Z,95601.89
2018-08-12T17:57:37.408Z,95599.84
2018-08-12T18:00:09.102Z,95602.35
2018-08-12T18:02:37.962Z,95608.36
2018-08-12T18:05:06.804Z,95604.00
2018-08-12T18:07:35.490Z,95609.17
2018-08-12T18:10:04.296Z,95610.03
2018-08-12T18:12:33.024Z,95613.70
2018-08-12T18:15:01.749Z,95599.88
2018-08-12T18:17:30.338Z,95621.62
2018-08-12T18:19:59.028Z,95620.30
2018-08-12T18:22:27.714Z,95622.26
2018-08-12T18:24:56.362Z,95626.97
2018-08-12T18:27:25.009Z,95623.06
2018-08-12T18:29:53.663Z,95626.23
2018-08-12T18:32:22.247Z,95629.56
2018-08-12T18:34:50.911Z,95629.56
2018-08-12T18:37:19.555Z,95633.11
2018-08-12T18:39:48.221Z,95629.14
2018-08-12T18:42:16.867Z,95633.69
2018-08-12T18:44:45.529Z,95633.48
2018-08-12T18:47:14.223Z,95639.62
2018-08-12T18:49:42.838Z,95633.33
2018-08-12T18:52:11.465Z,95637.12
2018-08-12T18:54:40.094Z,95640.87
2018-08-12T18:57:08.775Z,95637.34
2018-08-12T18:59:37.401Z,95641.09
2018-08-12T19:02:06.070Z,95644.06
2018-08-12T19:04:34.702Z,95638.77
2018-08-12T19:07:03.354Z,95637.22
2018-08-12T19:09:32.006Z,95630.94
2018-08-12T19:12:00.655Z,95633.14
2018-08-12T19:14:29.288Z,95628.05
2018-08-12T19:16:58.117Z,95628.89
2018-08-12T19:19:26.815Z,95627.30
2018-08-12T19:21:55.461Z,95629.09
2018-08-12T19:24:24.141Z,95628.34
2018-08-12T19:26:52.898Z,95625.63
2018-08-12T19:29:21.585Z,95625.69
2018-08-12T19:31:50.242Z,95627.47
2018-08-12T19:34:18.881Z,95622.20
2018-08-12T19:36:47.509Z,95627.14
2018-08-12T19:39:16.145Z,95621.44
2018-08-12T19:41:44.783Z,95623.81
2018-08-12T19:44:13.449Z,95626.17
2018-08-12T19:46:42.107Z,95623.23
2018-08-12T19:49:10.802Z,95623.67
2018-08-12T19:51:39.382Z,95624.86
2018-08-12T19:54:08.087Z,95624.47
2018-08-12T19:56:36.756Z,95624.07
2018-08-12T19:59:05.367Z,95622.49
2018-08-12T20:01:34.020Z,95616.83
2018-08-12T20:04:02.675Z,95622.52
2018-08-12T20:06:31.371Z,95622.52
2018-08-12T20:08:59.986Z,95623.30
2018-08-12T20:11:28.678Z,95624.08
2018-08-12T20:13:57.356Z,95624.67
2018-08-12T20:16:26.444Z,95614.49
2018-08-12T20:18:55.055Z,95619.77
2018-08-12T20:21:23.691Z,95619.97
2018-08-12T20:23:52.310Z,95622.14
2018-08-12T20:26:20.949Z,95617.61
2018-08-12T20:28:49.605Z,95618.02
2018-08-12T20:31:18.336Z,95614.30
2018-08-12T20:33:46.948Z,95618.80
2018-08-12T20:36:15.598Z,95627.78
2018-08-12T20:38:44.302Z,95626.97
2018-08-12T20:41:12.920Z,95619.33
2018-08-12T20:43:41.627Z,95614.03
2018-08-12T20:46:10.295Z,95621.66
2018-08-12T20:48:38.999Z,95628.50
2018-08-12T20:51:07.960Z,95632.42
2018-08-12T20:53:36.615Z,95631.42
2018-08-12T20:56:05.276Z,95631.19
2018-08-12T20:58:33.919Z,95633.92
2018-08-12T21:01:02.563Z,95630.17
2018-08-12T21:03:31.400Z,95625.45
2018-08-12T21:06:00.065Z,95625.86
2018-08-12T21:08:28.714Z,95630.33
2018-08-12T21:10:57.344Z,95631.46
2018-08-12T21:13:25.994Z,95634.91
2018-08-12T21:15:54.618Z,95631.98
2018-08-12T21:18:23.262Z,95632.73
2018-08-12T21:20:51.878Z,95632.34
2018-08-12T21:23:20.540Z,95631.91
2018-08-12T21:25:49.148Z,95632.92
2018-08-12T21:28:17.789Z,95630.54
2018-08-12T21:30:46.434Z,95630.69
2018-08-12T21:33:15.062Z,95632.84
2018-08-12T21:35:43.695Z,95636.34
2018-08-12T21:38:12.302Z,95628.73
2018-08-12T21:40:40.938Z,95632.38
2018-08-12T21:43:09.565Z,95630.56
2018-08-12T21:45:38.255Z,95633.87
2018-08-12T21:48:07.151Z,95637.98
2018-08-12T21:50:35.751Z,95628.96
2018-08-12T21:53:04.477Z,95626.58
2018-08-12T21:55:33.090Z,95628.27
2018-08-12T21:58:01.696Z,95623.92
2018-08-12T22:00:30.385Z,95624.67
2018-08-12T22:02:59.083Z,95618.23
2018-08-12T22:05:27.742Z,95623.58
2018-08-12T22:07:56.403Z,95618.00
2018-08-12T22:10:25.055Z,95623.75
2018-08-12T22:12:53.755Z,95621.81
2018-08-12T22:15:22.375Z,95623.58
2018-08-12T22:17:51.042Z,95623.89
2018-08-12T22:20:19.644Z,95625.16
2018-08-12T22:22:48.282Z,95624.32
2018-08-12T22:25:16.884Z,95627.84
2018-08-12T22:27:45.509Z,95623.34
2018-08-12T22:30:15.854Z,95622.69
2018-08-12T22:32:44.496Z,95625.14
2018-08-12T22:35:13.265Z,95618.71
2018-08-12T22:37:41.952Z,95621.83
2018-08-12T22:40:10.654Z,95620.92
2018-08-12T22:42:39.506Z,95618.03
2018-08-12T22:45:09.887Z,95623.72
2018-08-12T22:47:38.599Z,95617.13
2018-08-12T22:50:08.059Z,95621.30
2018-08-12T22:52:36.763Z,95623.90
2018-08-12T22:55:06.175Z,95624.19
2018-08-12T22:57:34.888Z,95623.03
2018-08-12T23:00:04.658Z,95622.34
2018-08-12T23:02:33.354Z,95622.34
2018-08-12T23:05:02.006Z,95625.29
2018-08-12T23:07:30.629Z,95626.44
2018-08-12T23:09:59.333Z,95624.45
2018-08-12T23:12:28.019Z,95623.88
2018-08-12T23:15:06.421Z,95626.27
2018-08-12T23:17:35.143Z,95624.20
2018-08-12T23:20:03.888Z,95631.19
2018-08-12T23:22:32.517Z,95635.93
2018-08-12T23:25:01.242Z,95630.58
2018-08-12T23:27:29.901Z,95628.88
2018-08-12T23:29:58.653Z,95617.68
2018-08-12T23:32:27.325Z,95622.92
2018-08-12T23:34:55.935Z,95621.94
2018-08-12T23:37:24.647Z,95628.36
2018-08-12T23:39:53.311Z,95621.86
2018-08-12T23:42:21.954Z,95629.23
2018-08-12T23:44:50.581Z,95622.02
2018-08-12T23:47:19.255Z,95624.70
2018-08-12T23:49:47.954Z,95617.44
2018-08-12T23:52:16.701Z,95615.11
2018-08-12T23:54:45.525Z,95616.23
2018-08-12T23:57:14.197Z,95613.91
2018-08-12T23:59:42.891Z,95614.87
